Volzhskiy-47 — UBEV — position and weather

sailwx.info

Track history (hours):
 
Tides and Currents Weather Stations Pressure Air Temp Water Temp Dewpoint Dewpoint Depression Visibility Wind Speed Wind Dir Waves Ship Positions

Volzhskiy-47

Last reported at 2017-Dec-11 13:42 UTC. Time now 2017-Dec-12 06:42 UTC.
Position N 45°08' E 036°35'.

Length 139 m; draft 4.1 m.

Type: Cargo ship. MMSI: 273431620.

Date/timePositionNaut miles runAvg speedWind from/ knotsBaromVisibWave heightAir tempDewpointWater temp
2017-Dec-11 13:42N 45°08' E 036°35'0 0.0
2017-Dec-10 18:44N 45°08' E 036°35'0 0.0
2017-Dec-09 13:09N 45°08' E 036°35'2 0.1
2017-Dec-08 15:17N 45°09' E 036°33'1 3.9
2017-Dec-08 15:00N 45°10' E 036°32'3 5.4
2017-Dec-08 14:29N 45°12' E 036°30'3 5.8
2017-Dec-08 13:58N 45°15' E 036°28'3 5.8
2017-Dec-08 13:26N 45°18' E 036°29'3 6.1
2017-Dec-08 13:00N 45°19' E 036°32'3 6.2
2017-Dec-08 12:30N 45°20' E 036°36'3 5.9
2017-Dec-08 12:01N 45°22' E 036°40'3 6.0
2017-Dec-08 11:31N 45°25' E 036°41'3 5.2
2017-Dec-08 11:00N 45°27' E 036°38'3 0.7
2017-Dec-08 07:06N 45°29' E 036°36'0 0.0
2017-Dec-08 07:00N 45°29' E 036°36'1 0.1
2017-Dec-07 19:45N 45°29' E 036°37'1 5.2
2017-Dec-07 19:30N 45°29' E 036°39'3 5.3
2017-Dec-07 18:59N 45°29' E 036°43'  
2017-Dec-04 10:30N 45°25' E 036°41'4 7.2
2017-Dec-04 10:00N 45°22' E 036°40'4 7.5
2017-Dec-04 09:30N 45°20' E 036°35'4 7.9
2017-Dec-04 09:00N 45°18' E 036°30'3 6.7
2017-Dec-04 08:30N 45°15' E 036°28'3 5.1
2017-Dec-04 08:00N 45°13' E 036°29'2 0.2
2017-Dec-03 22:08N 45°11' E 036°30'1 3.0
2017-Dec-03 21:55N 45°11' E 036°31'2 3.7
2017-Dec-03 21:23N 45°10' E 036°33'0 0.0
2017-Dec-03 20:44N 45°10' E 036°33'0 0.0
2017-Dec-03 20:26N 45°10' E 036°33'0 0.0
2017-Dec-03 19:59N 45°10' E 036°33'0 0.0
2017-Dec-03 19:23N 45°10' E 036°33'0 0.0
2017-Dec-03 18:53N 45°10' E 036°33'0 0.0
2017-Dec-03 17:38N 45°10' E 036°33'0 0.0
2017-Dec-03 17:20N 45°10' E 036°33'0 0.0
2017-Dec-03 14:23N 45°10' E 036°33'0 0.0
2017-Dec-03 13:50N 45°10' E 036°33'0 0.0
2017-Dec-03 13:08N 45°10' E 036°33'0 0.0
2017-Dec-03 11:50N 45°10' E 036°33'0 0.0
2017-Dec-03 11:26N 45°10' E 036°33'0 0.0
2017-Dec-03 10:59N 45°10' E 036°33'1 0.2
2017-Dec-03 05:57N 45°09' E 036°33'0 0.0
2017-Dec-03 05:30N 45°09' E 036°33'0 0.0
2017-Dec-02 13:56N 45°09' E 036°33'0 0.0
2017-Dec-02 05:50N 45°09' E 036°33'0 0.1
2017-Dec-02 05:26N 45°09' E 036°33'0 0.0
2017-Dec-01 14:04N 45°09' E 036°33'0 0.1
2017-Dec-01 13:42N 45°09' E 036°33'  
Track history (hours):
 
Tides and Currents Weather Stations Pressure Air Temp Water Temp Dewpoint Dewpoint Depression Visibility Wind Speed Wind Dir Waves Ship Positions

Volzhskiy-47

Last reported at 2017-Dec-11 13:42 UTC. Time now 2017-Dec-12 06:42 UTC.
Position N 45°08' E 036°35'.

Length 139 m; draft 4.1 m.

Type: Cargo ship. MMSI: 273431620.

Date/timePositionNaut miles runAvg speedWind from/ knotsBaromVisibWave heightAir tempDewpointWater temp
2017-Dec-11 13:42N 45°08' E 036°35'0 0.0
2017-Dec-10 18:44N 45°08' E 036°35'0 0.0
2017-Dec-09 13:09N 45°08' E 036°35'2 0.1
2017-Dec-08 15:17N 45°09' E 036°33'1 3.9
2017-Dec-08 15:00N 45°10' E 036°32'3 5.4
2017-Dec-08 14:29N 45°12' E 036°30'3 5.8
2017-Dec-08 13:58N 45°15' E 036°28'3 5.8
2017-Dec-08 13:26N 45°18' E 036°29'3 6.1
2017-Dec-08 13:00N 45°19' E 036°32'3 6.2
2017-Dec-08 12:30N 45°20' E 036°36'3 5.9
2017-Dec-08 12:01N 45°22' E 036°40'3 6.0
2017-Dec-08 11:31N 45°25' E 036°41'3 5.2
2017-Dec-08 11:00N 45°27' E 036°38'3 0.7
2017-Dec-08 07:06N 45°29' E 036°36'0 0.0
2017-Dec-08 07:00N 45°29' E 036°36'1 0.1
2017-Dec-07 19:45N 45°29' E 036°37'1 5.2
2017-Dec-07 19:30N 45°29' E 036°39'3 5.3
2017-Dec-07 18:59N 45°29' E 036°43'  
2017-Dec-04 10:30N 45°25' E 036°41'4 7.2
2017-Dec-04 10:00N 45°22' E 036°40'4 7.5
2017-Dec-04 09:30N 45°20' E 036°35'4 7.9
2017-Dec-04 09:00N 45°18' E 036°30'3 6.7
2017-Dec-04 08:30N 45°15' E 036°28'3 5.1
2017-Dec-04 08:00N 45°13' E 036°29'2 0.2
2017-Dec-03 22:08N 45°11' E 036°30'1 3.0
2017-Dec-03 21:55N 45°11' E 036°31'2 3.7
2017-Dec-03 21:23N 45°10' E 036°33'0 0.0
2017-Dec-03 20:44N 45°10' E 036°33'0 0.0
2017-Dec-03 20:26N 45°10' E 036°33'0 0.0
2017-Dec-03 19:59N 45°10' E 036°33'0 0.0
2017-Dec-03 19:23N 45°10' E 036°33'0 0.0
2017-Dec-03 18:53N 45°10' E 036°33'0 0.0
2017-Dec-03 17:38N 45°10' E 036°33'0 0.0
2017-Dec-03 17:20N 45°10' E 036°33'0 0.0
2017-Dec-03 14:23N 45°10' E 036°33'0 0.0
2017-Dec-03 13:50N 45°10' E 036°33'0 0.0
2017-Dec-03 13:08N 45°10' E 036°33'0 0.0
2017-Dec-03 11:50N 45°10' E 036°33'0 0.0
2017-Dec-03 11:26N 45°10' E 036°33'0 0.0
2017-Dec-03 10:59N 45°10' E 036°33'1 0.2
2017-Dec-03 05:57N 45°09' E 036°33'0 0.0
2017-Dec-03 05:30N 45°09' E 036°33'0 0.0
2017-Dec-02 13:56N 45°09' E 036°33'0 0.0
2017-Dec-02 05:50N 45°09' E 036°33'0 0.1
2017-Dec-02 05:26N 45°09' E 036°33'0 0.0
2017-Dec-01 14:04N 45°09' E 036°33'0 0.1
2017-Dec-01 13:42N 45°09' E 036°33'  

Dump ship's entire track history